X  SluitMETAR luchtvaart weer gegevens      EHRD Rotterdam The Hague Airport

Temperatuur

7°C Temperatuur

6°C Dauwpunt

93% Vochtigheid



Wind

 5 KM/U

 3 MPH

 1 M/S

 3 KTS



40°
Noord Oost
Huidig weer

Mist Mist
Luchtdruk 1007.92 (hPa) - 29.76 (in)
Zicht 1.2 (mi) - 2 (km)
Vliegveld
Vliegveld code EHRD

Locatie Rotterdam The Hague Airport 30 (km)

Metar:
EHRD 130355Z AUTO 04003KT 2100 BR NCD 07/06 Q1008 NOSIG

Tijd: 13-05-2021 05:55